Have a Safe July 4th! 

Flight Track Log - Related Links

Times and Time Zones

All times are in EDT time to prevent confusion due to time zone crossing. See the CTL14 flight status page for this flight to view local times or setup timezone preferences in your user account.

Time Position Orientation Groundspeed Altitude Reporting Facility
EDT Latitude Longitude Course Direction KTS MPH feet Rate Location/Type
Sat 02:25:34 AM 40.0706 -83.1086 250° West 105 121 1,900  Level Indianapolis Center
Sat 02:26:17 AM 40.0631 -83.1356 250° West 106 122 2,900 1,279 Climbing Indianapolis Center
Sat 02:26:35 AM 40.0597 -83.1456 246° West 105 121 3,200 885 Climbing Indianapolis Center
Sat 02:27:18 AM 40.0544 -83.1642 250° West 104 120 3,800 984 Climbing Indianapolis Center
Sat 02:27:36 AM 40.0511 -83.1800 255° West 101 116 4,200 900 Climbing Indianapolis Center
Sat 02:28:18 AM 40.0456 -83.2017 251° West 105 121 4,700 900 Climbing Indianapolis Center
Sat 02:28:36 AM 40.0419 -83.2197 255° West 110 127 5,100 800 Climbing Indianapolis Center
Sat 02:29:18 AM 40.0358 -83.2378 246° West 105 121 5,500 689 Climbing Indianapolis Center
Sat 02:29:37 AM 40.0311 -83.2539 249° West 104 120 5,800 300 Climbing Indianapolis Center
Sat 02:30:18 AM 40.0250 -83.2742 249° West 106 122 5,800 100 Level Indianapolis Center
Sat 02:30:37 AM 40.0200 -83.2933 251° West 117 135 5,900  Climbing Indianapolis Center
Sat 02:31:18 AM 40.0128 -83.3161 248° West 114 131 5,800  Descending Indianapolis Center
Sat 02:31:38 AM 40.0047 -83.3322 237° Southwest 126 145 5,900 100 Climbing Indianapolis Center
Sat 02:32:18 AM 39.9967 -83.3567 247° West 120 138 5,900  Level Indianapolis Center
Sat 02:32:39 AM 39.9911 -83.3742 247° West 126 145 5,900 -600 Level Indianapolis Center
Sat 02:33:18 AM 39.9831 -83.4014 249° West 127 146 5,300 -600 Descending Indianapolis Center
Sat 02:33:39 AM 39.9769 -83.4269 253° West 147 169 5,300 -197 Level Indianapolis Center
Sat 02:34:19 AM 39.9708 -83.4508 252° West 137 158 5,100 -295 Descending Indianapolis Center
Sat 02:34:40 AM 39.9653 -83.4744 253° West 141 162 5,000 -300 Descending Indianapolis Center
Sat 02:35:19 AM 39.9594 -83.4997 253° West 140 161 4,800 -393 Descending Indianapolis Center
Sat 02:35:41 AM 39.9531 -83.5247 252° West 142 163 4,600 -200 Descending Indianapolis Center
Sat 02:36:19 AM 39.9472 -83.5483 252° West 141 162 4,600 -200 Level Indianapolis Center
Sat 02:36:41 AM 39.9414 -83.5722 252° West 139 160 4,400 -100 Descending Indianapolis Center
Sat 02:37:19 AM 39.9339 -83.5958 248° West 140 161 4,500 -98 Climbing Indianapolis Center
Sat 02:37:42 AM 39.9253 -83.6192 244° Southwest 138 159 4,300 -400 Descending Indianapolis Center
Sat 02:38:19 AM 39.9192 -83.6414 250° West 138 159 4,100 -300 Descending Indianapolis Center
Sat 02:38:42 AM 39.9133 -83.6667 253° West 141 162 4,000  Descending Indianapolis Center
Sat 02:39:19 AM 39.9072 -83.6889 250° West 138 159 4,100  Climbing Indianapolis Center
Sat 02:39:43 AM 39.9017 -83.7117 252° West 127 146 4,000 -98 Descending Indianapolis Center
Sat 02:40:20 AM 39.8958 -83.7333 251° West 133 153 4,000 98 Level Indianapolis Center
Sat 02:40:44 AM 39.8903 -83.7536 250° West 128 147 4,100  Climbing Indianapolis Center
Sat 02:41:20 AM 39.8833 -83.7767 249° West 129 148 4,000  Descending Indianapolis Center
Sat 02:41:44 AM 39.8764 -83.7981 247° West 124 143 4,100 100 Climbing Indianapolis Center
Sat 02:42:20 AM 39.8703 -83.8181 248° West 126 145 4,100 -98 Level Indianapolis Center
Sat 02:42:45 AM 39.8667 -83.8431 259° West 128 147 4,000 -100 Descending Indianapolis Center
Sat 02:43:20 AM 39.8600 -83.8625 246° West 126 145 4,000 -100 Level Indianapolis Center
Sat 02:43:45 AM 39.8550 -83.8878 256° West 133 153 3,900 -100 Descending Indianapolis Center
Sat 02:44:20 AM 39.8489 -83.9075 248° West 127 146 3,900  Level Indianapolis Center
Sat 02:44:46 AM 39.8433 -83.9297 252° West 126 145 3,900  Level Indianapolis Center
Sat 02:45:20 AM 39.8375 -83.9506 250° West 127 146 3,900  Level Indianapolis Center
Sat 02:45:47 AM 39.8317 -83.9717 250° West 126 145 3,900 100 Level Indianapolis Center
Sat 02:46:20 AM 39.8269 -83.9936 254° West 125 144 4,000 100 Climbing Indianapolis Center
Sat 02:46:47 AM 39.8200 -84.0164 248° West 125 144 4,000  Level Indianapolis Center
Sat 02:47:20 AM 39.8142 -84.0358 249° West 125 144 4,000  Level Indianapolis Center
Sat 02:47:48 AM 39.8083 -84.0583 251° West 129 148 4,000  Level Indianapolis Center
Sat 02:48:21 AM 39.8025 -84.0808 251° West 127 146 4,000  Level Indianapolis Center
Sat 02:48:48 AM 39.7964 -84.1031 250° West 126 145 4,000  Level Indianapolis Center
Sat 02:49:21 AM 39.7908 -84.1233 250° West 126 145 4,000  Level Indianapolis Center
Sat 02:49:49 AM 39.7847 -84.1450 250° West 129 148 4,000  Level Indianapolis Center
Sat 02:50:21 AM 39.7783 -84.1672 249° West 127 146 4,000  Level Indianapolis Center
Sat 02:50:50 AM 39.7728 -84.1894 252° West 128 147 4,000  Level Indianapolis Center
Sat 02:51:21 AM 39.7667 -84.2117 250° West 128 147 4,000 100 Level Indianapolis Center
Sat 02:51:50 AM 39.7611 -84.2342 252° West 128 147 4,100  Climbing Indianapolis Center
Sat 02:52:21 AM 39.7547 -84.2558 249° West 128 147 4,000 -98 Descending Indianapolis Center
Sat 02:52:51 AM 39.7467 -84.2811 247° West 129 148 4,000  Level Indianapolis Center
Sat 02:53:21 AM 39.7419 -84.2997 252° West 128 147 4,000  Level Indianapolis Center
Sat 02:53:52 AM 39.7350 -84.3231 249° West 129 148 4,000  Level Indianapolis Center
Sat 02:54:21 AM 39.7294 -84.3442 251° West 129 148 4,000  Level Indianapolis Center
Sat 02:54:52 AM 39.7231 -84.3675 250° West 130 150 4,000  Level Indianapolis Center
Sat 02:55:22 AM 39.7175 -84.3878 250° West 128 147 4,000  Level Indianapolis Center
Sat 02:55:53 AM 39.7114 -84.4094 250° West 127 146 4,000  Level Indianapolis Center
Sat 02:56:22 AM 39.7069 -84.4244 249° West 128 147 4,000  Level Indianapolis Center
Sat 02:56:53 AM 39.6972 -84.4536 247° West 125 144 4,000 100 Level Indianapolis Center
Sat 02:57:22 AM 39.6944 -84.4672 255° West 127 146 4,100  Climbing Indianapolis Center
Sat 02:57:54 AM 39.6856 -84.4956 248° West 127 146 4,000 -100 Descending Indianapolis Center
Sat 02:58:22 AM 39.6814 -84.5100 249° West 126 145 4,000  Level Indianapolis Center
Sat 02:59:22 AM 39.6692 -84.5531 250° West 126 145 4,000  Level Indianapolis Center
Sat 03:00:22 AM 39.6567 -84.5975 250° West 128 147 4,000  Level Indianapolis Center
Sat 03:01:22 AM 39.6442 -84.6417 250° West 129 148 4,000  Level Indianapolis Center
Sat 03:02:23 AM 39.6297 -84.6853 247° West 129 148 4,000  Level Indianapolis Center
Sat 03:03:23 AM 39.6186 -84.7289 252° West 128 147 4,000  Level Indianapolis Center
Sat 03:04:23 AM 39.6053 -84.7769 250° West 127 146 4,000  Level Indianapolis Center
Sat 03:06:10 AM 39.5833 -84.8500 249° West 128 147 4,000 -36 Level Cincinnati TRACON
Sat 03:07:10 AM 39.5667 -84.8833 237° Southwest 125 144 3,900  Descending Cincinnati TRACON
Sat 03:08:04 AM 39.5667 -84.9333 270° West 124 143 4,000 105 Climbing Cincinnati TRACON
Sat 03:09:04 AM 39.5500 -84.9667 237° Southwest 129 148 4,100  Climbing Cincinnati TRACON
Sat 03:10:04 AM 39.5333 -85.0167 247° West 132 152 4,000  Descending Cincinnati TRACON
Sat 03:11:10 AM 39.5167 -85.0667 247° West 126 145 4,100  Climbing Cincinnati TRACON
Sat 03:12:10 AM 39.5000 -85.1000 237° Southwest 133 153 4,000 -50 Descending Cincinnati TRACON
Sat 03:13:11 AM 39.5000 -85.1500 270° West 130 150 4,000  Level Cincinnati TRACON
Sat 03:14:10 AM 39.4833 -85.2000 247° West 131 151 4,000 -72 Level Cincinnati TRACON
Sat 03:15:58 AM 39.4500 -85.2667 237° Southwest 129 148 3,800 -179 Descending Indianapolis TRACON
Sat 03:16:58 AM 39.4333 -85.3167 247° West 142 163 3,500 -300 Descending Indianapolis TRACON
Sat 03:17:58 AM 39.4333 -85.3667 270° West 144 166 3,200 -250 Descending Indianapolis TRACON
Sat 03:18:58 AM 39.4167 -85.4167 247° West 141 162 3,000 -100 Descending Indianapolis TRACON
Sat 03:19:58 AM 39.4000 -85.4667 247° West 138 159 3,000 50 Level Indianapolis TRACON
Sat 03:20:58 AM 39.3833 -85.5000 237° Southwest 137 158 3,100 50 Climbing Indianapolis TRACON
Sat 03:21:58 AM 39.3667 -85.5500 247° West 139 160 3,100 -50 Level Indianapolis TRACON
Sat 03:22:58 AM 39.3500 -85.6000 247° West 144 166 3,000 -100 Descending Indianapolis TRACON

Login

Don't have an account? Register now (free) for customized features, flight alerts, and more!